createdAt,value
2022-09-24T00:01:35.525Z,20.81
2022-09-24T00:04:05.174Z,20.78
2022-09-24T00:06:41.159Z,20.83
2022-09-24T00:09:08.092Z,20.81
2022-09-24T00:11:35.303Z,20.78
2022-09-24T00:14:01.919Z,20.73
2022-09-24T00:16:31.730Z,20.74
2022-09-24T00:18:59.627Z,20.74
2022-09-24T00:21:32.378Z,20.74
2022-09-24T00:24:01.378Z,20.71
2022-09-24T00:26:46.790Z,20.71
2022-09-24T00:29:17.400Z,20.73
2022-09-24T00:31:44.080Z,20.71
2022-09-24T00:34:11.241Z,20.71
2022-09-24T00:36:38.693Z,20.71
2022-09-24T00:39:06.557Z,20.70
2022-09-24T00:41:37.978Z,20.70
2022-09-24T00:44:35.371Z,20.70
2022-09-24T00:47:01.979Z,20.70
2022-09-24T00:49:28.643Z,20.67
2022-09-24T00:51:55.590Z,20.70
2022-09-24T00:54:28.498Z,20.70
2022-09-24T00:56:58.542Z,20.70
2022-09-24T00:59:25.747Z,20.70
2022-09-24T01:01:57.685Z,20.70
2022-09-24T01:04:27.498Z,20.68
2022-09-24T01:06:55.821Z,20.70
2022-09-24T01:09:25.800Z,20.68
2022-09-24T01:12:01.467Z,20.66
2022-09-24T01:15:06.323Z,20.71
2022-09-24T01:17:42.090Z,20.67
2022-09-24T01:20:21.641Z,20.66
2022-09-24T01:23:24.472Z,20.64
2022-09-24T01:26:28.453Z,20.59
2022-09-24T01:28:55.633Z,20.60
2022-09-24T01:31:44.339Z,20.60
2022-09-24T01:34:14.936Z,20.61
2022-09-24T01:36:43.309Z,20.57
2022-09-24T01:39:10.788Z,20.57
2022-09-24T01:41:39.279Z,20.56
2022-09-24T01:44:07.537Z,20.56
2022-09-24T01:46:39.705Z,20.54
2022-09-24T01:49:07.319Z,20.53
2022-09-24T01:51:44.148Z,20.54
2022-09-24T01:54:22.367Z,20.51
2022-09-24T01:56:55.968Z,20.53
2022-09-24T01:59:28.592Z,20.51
2022-09-24T02:02:04.661Z,20.50
2022-09-24T02:04:38.132Z,20.49
2022-09-24T02:07:14.274Z,20.49
2022-09-24T02:09:43.554Z,20.47
2022-09-24T02:12:12.199Z,20.46
2022-09-24T02:14:47.416Z,20.46
2022-09-24T02:17:15.663Z,20.47
2022-09-24T02:19:42.856Z,20.49
2022-09-24T02:22:12.725Z,20.49
2022-09-24T02:24:50.824Z,20.46
2022-09-24T02:27:18.669Z,20.49
2022-09-24T02:29:46.294Z,20.44
2022-09-24T02:32:18.229Z,20.43
2022-09-24T02:34:50.239Z,20.40
2022-09-24T02:37:17.232Z,20.40
2022-09-24T02:39:44.286Z,20.36
2022-09-24T02:42:14.514Z,20.37
2022-09-24T02:44:41.084Z,20.40
2022-09-24T02:47:08.314Z,20.40
2022-09-24T02:49:35.091Z,20.40
2022-09-24T02:52:02.128Z,20.43
2022-09-24T02:54:28.839Z,20.42
2022-09-24T02:56:55.583Z,20.42
2022-09-24T02:59:22.681Z,20.40
2022-09-24T03:01:50.339Z,20.42
2022-09-24T03:04:17.071Z,20.42
2022-09-24T03:06:43.660Z,20.44
2022-09-24T03:09:13.043Z,20.43
2022-09-24T03:11:40.143Z,20.43
2022-09-24T03:14:06.775Z,20.40
2022-09-24T03:16:33.952Z,20.39
2022-09-24T03:19:00.679Z,20.42
2022-09-24T03:21:27.355Z,20.37
2022-09-24T03:23:53.966Z,20.37
2022-09-24T03:26:20.821Z,20.37
2022-09-24T03:28:47.520Z,20.37
2022-09-24T03:31:14.743Z,20.34
2022-09-24T03:33:44.176Z,20.34
2022-09-24T03:36:14.026Z,20.36
2022-09-24T03:38:41.667Z,20.37
2022-09-24T03:41:09.445Z,20.37
2022-09-24T03:43:37.158Z,20.40
2022-09-24T03:46:06.901Z,20.39
2022-09-24T03:48:38.520Z,20.39
2022-09-24T03:51:11.205Z,20.40
2022-09-24T03:53:38.609Z,20.40
2022-09-24T03:56:07.017Z,20.43
2022-09-24T03:58:39.155Z,20.46
2022-09-24T04:01:07.384Z,20.43
2022-09-24T04:03:36.434Z,20.42
2022-09-24T04:06:03.957Z,20.40
2022-09-24T04:08:31.703Z,20.40
2022-09-24T04:10:58.742Z,20.44
2022-09-24T04:13:25.746Z,20.40
2022-09-24T04:15:52.525Z,20.42
2022-09-24T04:18:19.267Z,20.42
2022-09-24T04:20:47.000Z,20.43
2022-09-24T04:23:13.747Z,20.40
2022-09-24T04:25:43.182Z,20.40
2022-09-24T04:28:10.641Z,20.36
2022-09-24T04:30:38.353Z,20.37
2022-09-24T04:33:05.719Z,20.34
2022-09-24T04:35:36.051Z,20.33
2022-09-24T04:38:04.148Z,20.34
2022-09-24T04:40:31.207Z,20.34
2022-09-24T04:42:57.948Z,20.33
2022-09-24T04:45:25.109Z,20.33
2022-09-24T04:47:53.654Z,20.30
2022-09-24T04:50:21.091Z,20.33
2022-09-24T04:52:47.896Z,20.32
2022-09-24T04:55:14.553Z,20.32
2022-09-24T04:57:41.398Z,20.30
2022-09-24T05:00:14.862Z,20.32
2022-09-24T05:02:42.746Z,20.30
2022-09-24T05:05:11.438Z,20.30
2022-09-24T05:07:41.056Z,20.32
2022-09-24T05:10:08.066Z,20.29
2022-09-24T05:12:36.636Z,20.26
2022-09-24T05:15:04.265Z,20.25
2022-09-24T05:17:30.869Z,20.22
2022-09-24T05:19:59.527Z,20.22
2022-09-24T05:22:27.534Z,20.22
2022-09-24T05:24:54.475Z,20.21
2022-09-24T05:27:22.338Z,20.21
2022-09-24T05:29:49.006Z,20.19
2022-09-24T05:32:17.802Z,20.22
2022-09-24T05:34:45.598Z,20.19
2022-09-24T05:37:13.666Z,20.18
2022-09-24T05:39:40.240Z,20.18
2022-09-24T05:42:09.309Z,20.16
2022-09-24T05:44:37.356Z,20.18
2022-09-24T05:47:03.960Z,20.19
2022-09-24T05:49:30.511Z,20.21
2022-09-24T05:51:57.081Z,20.19
2022-09-24T05:54:23.648Z,20.16
2022-09-24T05:56:50.215Z,20.16
2022-09-24T05:59:16.773Z,20.18
2022-09-24T06:01:43.383Z,20.15
2022-09-24T06:04:11.460Z,20.19
2022-09-24T06:06:38.376Z,20.18
2022-09-24T06:09:05.662Z,20.19
2022-09-24T06:11:40.171Z,20.19
2022-09-24T06:14:08.805Z,20.22
2022-09-24T06:16:36.262Z,20.19
2022-09-24T06:19:03.069Z,20.19
2022-09-24T06:21:29.654Z,20.19
2022-09-24T06:23:56.303Z,20.15
2022-09-24T06:26:22.992Z,20.12
2022-09-24T06:28:49.583Z,20.12
2022-09-24T06:31:16.305Z,20.12
2022-09-24T06:33:43.145Z,20.16
2022-09-24T06:36:10.246Z,20.15
2022-09-24T06:38:36.943Z,20.18
2022-09-24T06:41:05.269Z,20.16
2022-09-24T06:43:33.505Z,20.16
2022-09-24T06:46:01.208Z,20.15
2022-09-24T06:48:28.650Z,20.11
2022-09-24T06:50:56.445Z,20.09
2022-09-24T06:53:23.500Z,20.12
2022-09-24T06:55:50.126Z,20.13
2022-09-24T06:58:22.037Z,20.15
2022-09-24T07:00:59.006Z,20.12
2022-09-24T07:03:27.219Z,20.13
2022-09-24T07:05:54.272Z,20.13
2022-09-24T07:08:21.079Z,20.16
2022-09-24T07:10:52.585Z,20.19
2022-09-24T07:13:21.415Z,20.25
2022-09-24T07:15:50.391Z,20.29
2022-09-24T07:18:17.975Z,20.30
2022-09-24T07:20:44.794Z,20.36
2022-09-24T07:23:12.827Z,20.40
2022-09-24T07:25:39.807Z,20.51
2022-09-24T07:28:12.375Z,20.64
2022-09-24T07:30:39.632Z,20.77
2022-09-24T07:33:09.657Z,20.94
2022-09-24T07:35:39.803Z,20.98
2022-09-24T07:38:12.125Z,20.99
2022-09-24T07:40:39.000Z,20.99
2022-09-24T07:43:07.018Z,20.95
2022-09-24T07:45:34.052Z,20.92
2022-09-24T07:48:02.787Z,20.87
2022-09-24T07:50:34.799Z,20.88
2022-09-24T07:53:01.422Z,20.83
2022-09-24T07:55:28.010Z,20.85
2022-09-24T07:57:56.019Z,20.88
2022-09-24T08:00:24.942Z,20.91
2022-09-24T08:02:56.480Z,20.94
2022-09-24T08:05:23.214Z,20.97
2022-09-24T08:07:55.314Z,20.98
2022-09-24T08:10:22.933Z,20.97
2022-09-24T08:12:49.793Z,20.98
2022-09-24T08:15:16.603Z,21.01
2022-09-24T08:17:43.222Z,20.95
2022-09-24T08:20:10.272Z,20.99
2022-09-24T08:22:37.467Z,21.02
2022-09-24T08:25:04.915Z,21.08
2022-09-24T08:27:32.979Z,21.11
2022-09-24T08:30:00.777Z,21.16
2022-09-24T08:32:29.251Z,21.26
2022-09-24T08:34:55.917Z,21.32
2022-09-24T08:37:22.777Z,21.32
2022-09-24T08:39:49.322Z,21.28
2022-09-24T08:42:41.363Z,21.29
2022-09-24T08:45:29.414Z,21.15
2022-09-24T08:48:01.420Z,21.22
2022-09-24T08:50:30.523Z,21.52
2022-09-24T08:53:12.541Z,21.91
2022-09-24T08:55:51.415Z,22.34
2022-09-24T08:58:17.905Z,22.73
2022-09-24T09:00:51.594Z,23.15
2022-09-24T09:03:36.848Z,23.55
2022-09-24T09:06:16.064Z,23.87
2022-09-24T09:09:24.483Z,23.96
2022-09-24T09:12:00.792Z,23.76
2022-09-24T09:14:42.450Z,23.49
2022-09-24T09:17:29.667Z,23.27
2022-09-24T09:19:59.303Z,23.08
2022-09-24T09:22:30.998Z,22.94
2022-09-24T09:25:06.947Z,22.77
2022-09-24T09:27:33.494Z,22.64
2022-09-24T09:30:05.692Z,22.69
2022-09-24T09:32:55.640Z,22.80
2022-09-24T09:35:35.841Z,22.86
2022-09-24T09:38:19.199Z,22.91
2022-09-24T09:41:02.963Z,23.04
2022-09-24T09:43:29.615Z,23.31
2022-09-24T09:46:09.645Z,23.41
2022-09-24T09:48:46.028Z,23.45
2022-09-24T09:51:22.373Z,23.48
2022-09-24T09:54:00.720Z,23.37
2022-09-24T09:56:48.809Z,23.24
2022-09-24T09:59:27.193Z,23.18
2022-09-24T10:01:56.411Z,23.10
2022-09-24T10:04:43.667Z,23.19
2022-09-24T10:07:16.630Z,23.22
2022-09-24T10:09:57.840Z,23.25
2022-09-24T10:12:26.813Z,23.35
2022-09-24T10:14:57.373Z,23.37
2022-09-24T10:17:29.400Z,23.27
2022-09-24T10:19:56.232Z,23.29
2022-09-24T10:22:25.560Z,23.34
2022-09-24T10:24:54.472Z,23.34
2022-09-24T10:27:35.223Z,23.46
2022-09-24T10:30:31.503Z,23.54
2022-09-24T10:33:01.001Z,23.77
2022-09-24T10:35:38.531Z,23.92
2022-09-24T10:38:17.155Z,23.94
2022-09-24T10:40:43.995Z,24.04
2022-09-24T10:43:19.775Z,24.27
2022-09-24T10:46:08.423Z,24.37
2022-09-24T10:48:45.608Z,24.47
2022-09-24T10:51:28.939Z,24.54
2022-09-24T10:54:26.849Z,24.39
2022-09-24T10:56:56.837Z,24.37
2022-09-24T10:59:30.522Z,24.47
2022-09-24T11:02:33.895Z,24.55
2022-09-24T11:05:22.491Z,24.44
2022-09-24T11:08:07.424Z,24.21
2022-09-24T11:11:06.168Z,23.96
2022-09-24T11:13:41.475Z,23.89
2022-09-24T11:16:45.422Z,23.77
2022-09-24T11:19:36.738Z,23.62
2022-09-24T11:22:21.411Z,23.54
2022-09-24T11:25:14.899Z,23.61
2022-09-24T11:28:03.176Z,23.59
2022-09-24T11:30:46.256Z,23.73
2022-09-24T11:33:36.516Z,23.83
2022-09-24T11:36:27.507Z,23.99
2022-09-24T11:39:12.120Z,24.03
2022-09-24T11:41:58.407Z,24.04
2022-09-24T11:44:27.064Z,23.93
2022-09-24T11:47:02.804Z,23.79
2022-09-24T11:49:47.307Z,23.67
2022-09-24T11:52:31.752Z,23.62
2022-09-24T11:55:13.505Z,23.48
2022-09-24T11:57:45.293Z,23.42
2022-09-24T12:00:12.079Z,23.29
2022-09-24T12:03:01.066Z,23.19
2022-09-24T12:05:30.655Z,23.06
2022-09-24T12:08:03.413Z,22.91
2022-09-24T12:10:53.869Z,22.87
2022-09-24T12:13:25.339Z,22.80
2022-09-24T12:15:56.745Z,22.66
2022-09-24T12:18:31.573Z,22.59
2022-09-24T12:21:01.945Z,22.53
2022-09-24T12:23:35.122Z,22.49
2022-09-24T12:26:05.569Z,22.52
2022-09-24T12:29:36.603Z,22.49
2022-09-24T12:32:50.027Z,22.53
2022-09-24T12:35:19.352Z,22.55
2022-09-24T12:37:50.167Z,22.53
2022-09-24T12:40:45.599Z,22.45
2022-09-24T12:43:37.725Z,22.48
2022-09-24T12:46:08.872Z,22.45
2022-09-24T12:48:38.679Z,22.43
2022-09-24T12:51:08.977Z,22.43
2022-09-24T12:53:38.549Z,22.45
2022-09-24T12:56:06.807Z,22.48
2022-09-24T12:58:37.914Z,22.51
2022-09-24T13:01:14.335Z,22.46
2022-09-24T13:03:46.898Z,22.42
2022-09-24T13:06:36.213Z,22.42
2022-09-24T13:09:04.732Z,22.41
2022-09-24T13:11:36.743Z,22.39
2022-09-24T13:14:27.231Z,22.41
2022-09-24T13:16:56.810Z,22.39
2022-09-24T13:19:33.550Z,22.39
2022-09-24T13:22:01.516Z,22.41
2022-09-24T13:24:45.949Z,22.34
2022-09-24T13:27:37.964Z,22.34
2022-09-24T13:30:19.631Z,22.36
2022-09-24T13:32:53.890Z,22.36
2022-09-24T13:35:26.795Z,22.28
2022-09-24T13:38:15.629Z,22.24
2022-09-24T13:40:49.970Z,22.31
2022-09-24T13:43:32.451Z,22.34
2022-09-24T13:45:59.658Z,22.36
2022-09-24T13:48:29.247Z,22.42
2022-09-24T13:50:56.718Z,22.39
2022-09-24T13:53:30.212Z,22.36
2022-09-24T13:56:05.303Z,22.38
2022-09-24T13:58:34.134Z,22.38
2022-09-24T14:01:07.472Z,22.43
2022-09-24T14:03:37.833Z,22.45
2022-09-24T14:06:35.896Z,22.53
2022-09-24T14:09:02.758Z,22.56
2022-09-24T14:11:29.420Z,22.60
2022-09-24T14:13:57.435Z,22.67
2022-09-24T14:16:25.653Z,22.67
2022-09-24T14:19:05.967Z,22.72
2022-09-24T14:21:48.338Z,22.70
2022-09-24T14:24:40.338Z,22.74
2022-09-24T14:27:19.114Z,22.72
2022-09-24T14:29:57.960Z,22.70
2022-09-24T14:32:31.340Z,22.64
2022-09-24T14:35:05.421Z,22.56
2022-09-24T14:37:37.254Z,22.51
2022-09-24T14:40:11.882Z,22.34
2022-09-24T14:42:45.999Z,22.17
2022-09-24T14:45:22.178Z,22.17
2022-09-24T14:48:03.058Z,22.17
2022-09-24T14:50:36.881Z,22.21
2022-09-24T14:53:13.299Z,22.24
2022-09-24T14:55:43.144Z,22.26
2022-09-24T14:58:42.287Z,22.19
2022-09-24T15:01:21.364Z,22.12
2022-09-24T15:03:54.690Z,22.11
2022-09-24T15:06:32.200Z,22.02
2022-09-24T15:09:29.707Z,21.97
2022-09-24T15:12:10.175Z,21.96
2022-09-24T15:14:36.837Z,21.94
2022-09-24T15:17:19.275Z,21.93
2022-09-24T15:19:46.141Z,21.91
2022-09-24T15:22:12.756Z,21.90
2022-09-24T15:24:39.654Z,21.90
2022-09-24T15:27:16.004Z,21.88
2022-09-24T15:29:42.621Z,21.84
2022-09-24T15:32:16.606Z,21.81
2022-09-24T15:34:43.473Z,21.77
2022-09-24T15:37:13.063Z,21.76
2022-09-24T15:39:40.483Z,21.70
2022-09-24T15:42:09.207Z,21.62
2022-09-24T15:44:35.797Z,21.53
2022-09-24T15:47:02.457Z,21.50
2022-09-24T15:49:28.998Z,21.42
2022-09-24T15:52:01.693Z,21.38
2022-09-24T15:54:29.048Z,21.35
2022-09-24T15:56:55.627Z,21.31
2022-09-24T15:59:23.370Z,21.31
2022-09-24T16:01:53.215Z,21.31
2022-09-24T16:04:20.313Z,21.31
2022-09-24T16:06:46.959Z,21.31
2022-09-24T16:09:13.534Z,21.32
2022-09-24T16:11:40.095Z,21.33
2022-09-24T16:14:07.482Z,21.31
2022-09-24T16:16:34.140Z,21.28
2022-09-24T16:19:00.780Z,21.26
2022-09-24T16:21:27.367Z,21.26
2022-09-24T16:23:55.665Z,21.22
2022-09-24T16:26:22.297Z,21.15
2022-09-24T16:28:51.289Z,21.12
2022-09-24T16:31:19.329Z,21.09
2022-09-24T16:33:46.317Z,21.11
2022-09-24T16:36:12.888Z,21.06
2022-09-24T16:38:40.316Z,21.06
2022-09-24T16:41:07.443Z,21.08
2022-09-24T16:43:36.275Z,21.06
2022-09-24T16:46:07.208Z,21.08
2022-09-24T16:48:34.237Z,21.09
2022-09-24T16:51:08.079Z,21.09
2022-09-24T16:53:34.956Z,21.04
2022-09-24T16:56:13.371Z,21.06
2022-09-24T16:58:45.092Z,21.01
2022-09-24T17:01:17.748Z,20.98
2022-09-24T17:03:44.973Z,20.95
2022-09-24T17:06:23.866Z,20.94
2022-09-24T17:09:09.757Z,20.91
2022-09-24T17:11:37.111Z,20.90
2022-09-24T17:14:03.750Z,20.90
2022-09-24T17:16:30.530Z,20.85
2022-09-24T17:18:57.169Z,20.87
2022-09-24T17:21:24.011Z,20.87
2022-09-24T17:23:51.042Z,20.83
2022-09-24T17:26:20.217Z,20.80
2022-09-24T17:28:48.033Z,20.78
2022-09-24T17:31:16.931Z,20.74
2022-09-24T17:33:44.582Z,20.67
2022-09-24T17:36:12.829Z,20.66
2022-09-24T17:38:39.462Z,20.66
2022-09-24T17:41:09.114Z,20.61
2022-09-24T17:43:37.273Z,20.59
2022-09-24T17:46:13.785Z,20.61
2022-09-24T17:48:44.617Z,20.59
2022-09-24T17:51:19.962Z,20.56
2022-09-24T17:53:47.160Z,20.53
2022-09-24T17:56:15.096Z,20.53
2022-09-24T17:58:44.117Z,20.51
2022-09-24T18:01:17.897Z,20.53
2022-09-24T18:03:45.275Z,20.50
2022-09-24T18:06:14.886Z,20.51
2022-09-24T18:08:43.490Z,20.56
2022-09-24T18:11:14.688Z,20.51
2022-09-24T18:13:41.751Z,20.49
2022-09-24T18:16:16.296Z,20.49
2022-09-24T18:18:44.129Z,20.47
2022-09-24T18:21:13.245Z,20.44
2022-09-24T18:23:40.395Z,20.47
2022-09-24T18:26:27.603Z,20.49
2022-09-24T18:28:58.000Z,20.46
2022-09-24T18:31:28.204Z,20.46
2022-09-24T18:33:57.052Z,20.42
2022-09-24T18:36:25.813Z,20.40
2022-09-24T18:38:53.240Z,20.37
2022-09-24T18:41:24.673Z,20.36
2022-09-24T18:43:52.408Z,20.33
2022-09-24T18:46:21.080Z,20.33
2022-09-24T18:48:49.831Z,20.26
2022-09-24T18:51:22.115Z,20.21
2022-09-24T18:53:52.998Z,20.16
2022-09-24T18:56:20.216Z,20.12
2022-09-24T18:58:47.637Z,20.12
2022-09-24T19:01:16.131Z,20.09
2022-09-24T19:03:43.509Z,20.04
2022-09-24T19:06:12.861Z,19.99
2022-09-24T19:08:40.158Z,19.95
2022-09-24T19:11:14.068Z,19.91
2022-09-24T19:13:42.447Z,19.92
2022-09-24T19:16:13.967Z,19.89
2022-09-24T19:18:41.812Z,19.88
2022-09-24T19:21:11.742Z,19.89
2022-09-24T19:23:50.300Z,19.92
2022-09-24T19:26:26.595Z,19.88
2022-09-24T19:28:53.687Z,19.88
2022-09-24T19:31:26.418Z,19.91
2022-09-24T19:33:54.360Z,19.88
2022-09-24T19:36:22.323Z,19.85
2022-09-24T19:38:49.699Z,19.84
2022-09-24T19:41:18.284Z,19.82
2022-09-24T19:43:45.044Z,19.77
2022-09-24T19:46:17.113Z,19.70
2022-09-24T19:48:46.331Z,19.64
2022-09-24T19:51:22.036Z,19.58
2022-09-24T19:53:53.717Z,19.51
2022-09-24T19:56:22.517Z,19.51
2022-09-24T19:58:56.237Z,19.47
2022-09-24T20:01:28.813Z,19.45
2022-09-24T20:03:56.346Z,19.41
2022-09-24T20:06:27.076Z,19.41
2022-09-24T20:08:54.628Z,19.34
2022-09-24T20:11:22.935Z,19.30
2022-09-24T20:13:51.456Z,19.26
2022-09-24T20:16:24.418Z,19.30
2022-09-24T20:18:53.900Z,19.30
2022-09-24T20:21:21.196Z,19.26
2022-09-24T20:23:48.664Z,19.26
2022-09-24T20:26:35.695Z,19.23
2022-09-24T20:29:02.940Z,19.19
2022-09-24T20:31:30.084Z,19.19
2022-09-24T20:33:56.985Z,19.20
2022-09-24T20:36:25.014Z,19.15
2022-09-24T20:38:54.946Z,19.18
2022-09-24T20:41:23.907Z,19.20
2022-09-24T20:43:52.002Z,19.20
2022-09-24T20:46:24.109Z,19.18
2022-09-24T20:48:58.139Z,19.20
2022-09-24T20:51:27.275Z,19.18
2022-09-24T20:53:54.693Z,19.20
2022-09-24T20:56:22.439Z,19.20
2022-09-24T20:58:50.674Z,19.23
2022-09-24T21:01:17.829Z,19.23
2022-09-24T21:03:45.847Z,19.19
2022-09-24T21:06:15.004Z,19.16
2022-09-24T21:08:44.266Z,19.18
2022-09-24T21:11:22.319Z,19.11
2022-09-24T21:13:51.423Z,19.05
2022-09-24T21:16:20.843Z,19.06
2022-09-24T21:18:48.724Z,19.08
2022-09-24T21:21:21.515Z,19.01
2022-09-24T21:23:50.236Z,19.01
2022-09-24T21:26:21.368Z,19.01
2022-09-24T21:28:52.921Z,19.03
2022-09-24T21:31:22.613Z,19.05
2022-09-24T21:33:53.200Z,19.05
2022-09-24T21:36:24.339Z,18.98
2022-09-24T21:39:12.893Z,18.99
2022-09-24T21:41:39.545Z,18.98
2022-09-24T21:44:08.384Z,18.99
2022-09-24T21:46:35.788Z,18.96
2022-09-24T21:49:03.093Z,18.96
2022-09-24T21:51:30.300Z,18.94
2022-09-24T21:54:05.285Z,18.95
2022-09-24T21:56:33.892Z,18.92
2022-09-24T21:59:01.248Z,18.92
2022-09-24T22:01:30.386Z,18.96
2022-09-24T22:03:59.346Z,18.94
2022-09-24T22:06:29.086Z,18.95
2022-09-24T22:08:58.864Z,18.92
2022-09-24T22:11:28.326Z,18.89
2022-09-24T22:14:01.050Z,18.89
2022-09-24T22:16:33.735Z,18.88
2022-09-24T22:19:00.890Z,18.88
2022-09-24T22:21:28.088Z,18.82
2022-09-24T22:23:54.983Z,18.82
2022-09-24T22:26:21.876Z,18.81
2022-09-24T22:28:48.575Z,18.76
2022-09-24T22:31:17.357Z,18.74
2022-09-24T22:34:05.218Z,18.72
2022-09-24T22:36:33.309Z,18.71
2022-09-24T22:39:01.483Z,18.69
2022-09-24T22:41:29.988Z,18.71
2022-09-24T22:43:57.942Z,18.68
2022-09-24T22:46:27.371Z,18.69
2022-09-24T22:48:55.363Z,18.72
2022-09-24T22:51:23.260Z,18.75
2022-09-24T22:53:50.026Z,18.72
2022-09-24T22:56:19.598Z,18.72
2022-09-24T22:58:51.764Z,18.74
2022-09-24T23:01:23.607Z,18.69
2022-09-24T23:03:52.219Z,18.72
2022-09-24T23:06:20.939Z,18.71
2022-09-24T23:08:48.527Z,18.68
2022-09-24T23:11:23.696Z,18.74
2022-09-24T23:14:01.380Z,18.68
2022-09-24T23:16:30.351Z,18.69
2022-09-24T23:18:59.121Z,18.71
2022-09-24T23:21:27.973Z,18.72
2022-09-24T23:24:00.020Z,18.75
2022-09-24T23:26:28.075Z,18.71
2022-09-24T23:28:56.123Z,18.71
2022-09-24T23:31:25.842Z,18.67
2022-09-24T23:33:54.371Z,18.69
2022-09-24T23:36:20.945Z,18.68
2022-09-24T23:38:47.500Z,18.69
2022-09-24T23:41:15.076Z,18.71
2022-09-24T23:43:42.129Z,18.71
2022-09-24T23:46:10.153Z,18.68
2022-09-24T23:48:37.199Z,18.65
2022-09-24T23:51:04.457Z,18.64
2022-09-24T23:53:31.791Z,18.60
2022-09-24T23:55:58.941Z,18.60
2022-09-24T23:58:25.845Z,18.56
